ADDS METAR Data INFO
IDs: Format: Raw Decoded Include TAF

Data at: 0212 UTC 17 Aug 2018

PANC 170153Z 00000KT 10SM FEW028 SCT070 BKN200 17/11 A2998 RMK AO2 SLP154 T01720106
PANC 170053Z 29005KT 10SM FEW025 SCT080 BKN200 17/09 A2999 RMK AO2 SLP155 T01670094
PANC 162353Z 31003KT 10SM FEW025 SCT080 BKN200 16/09 A2999 RMK AO2 SLP155 T01610089 10161 20122 58001
PANC 162253Z 30005KT 10SM FEW025 SCT065 BKN200 16/09 A2999 RMK AO2 SLP156 T01560089
PANC 162153Z 27007KT 10SM FEW020 BKN065 BKN200 16/09 A2999 RMK AO2 SLP156 T01610089 VISNO N $
PANC 162053Z VRB03KT 10SM FEW018 BKN065 BKN200 14/09 A2999 RMK AO2 SLP156 T01440089 50002
PANC 161953Z 22003KT 10SM SCT016 SCT021 OVC060 14/09 A2999 RMK AO2 SLP157 T01440094 $
PANC 161853Z VRB05KT 10SM FEW009 SCT014 BKN060 13/10 A2999 RMK AO2 SLP156 T01280100 $
PANC 161829Z 19003KT 10SM FEW009 SCT014 BKN060 13/10 A2999 RMK AO2 T01280100
PANC 161753Z 18006KT 10SM FEW009 BKN014 BKN065 12/09 A2999 RMK AO2 RAE02 SLP155 P0000 60002 T01220094 10122 20106 51003
PANC 161749Z 17004KT 10SM FEW009 BKN014 BKN065 12/09 A2999 RMK AO2 RAE02 P0000
PANC 161702Z 18004KT 10SM FEW009 FEW016 BKN065 12/11 A2999 RMK AO2 RAE02 P0000 T01220106
PANC 161653Z 19005KT 10SM -RA SCT013 OVC070 12/10 A2998 RMK AO2 SLP154 P0001 T01170100
PANC 161553Z 00000KT 10SM -RA FEW012 BKN055 OVC090 11/10 A2998 RMK AO2 SLP153 P0001 T01110100
PANC 161453Z 00000KT 10SM -RA FEW015 BKN055 OVC090 11/09 A2998 RMK AO2 RAB40 SLP151 P0000 60000 T01110094 51006
PANC 161353Z 17004KT 10SM FEW014 SCT020 OVC049 11/09 A2997 RMK AO2 SLP150 T01110094
PANC 161345Z 15005KT 10SM SCT014 BKN019 OVC048 11/09 A2997 RMK AO2 T01110094
PANC 161311Z 16003KT 10SM FEW013 SCT030 OVC055 12/09 A2997 RMK AO2 CIG 045 N T01170094
PANC 161301Z 22004KT 10SM SCT017 BKN027 OVC055 12/09 A2997 RMK AO2 T01170094
PANC 161253Z 21004KT 10SM SCT017 BKN030 OVC055 12/09 A2997 RMK AO2 SLP148 T01170094
PANC 161224Z 22005KT 10SM BKN019 BKN028 OVC070 12/09 A2997 RMK AO2 T01170094
PANC 161153Z 20006G19KT 10SM FEW015 OVC060 12/09 A2996 RMK AO2 RAE12 SLP146 P0000 60005 70007 T01220089 10139 20117 51005
PANC 161053Z 17005KT 10SM -RA OVC060 12/09 A2996 RMK AO2 SLP145 P0001 T01170094
PANC 160953Z 19008KT 9SM -RA FEW050 OVC060 12/10 A2995 RMK AO2 SLP144 P0002 T01170100
PANC 160853Z 18012G18KT 10SM -RA BKN050 OVC070 12/10 A2994 RMK AO2 SLP141 P0002 60002 T01220100 401560117 53007
PANC 160753Z 18012G18KT 10SM -RA FEW030 BKN055 BKN095 13/09 A2994 RMK AO2 RAB31 SLP138 P0000 T01280094
PANC 160653Z 17012G20KT 10SM FEW030 BKN055 BKN095 14/09 A2993 RMK AO2 RAE03 SLP135 P0000 T01390089
PANC 160553Z 16013KT 10SM -RA FEW030 BKN055 BKN095 14/08 A2992 RMK AO2 RAE17B43 SLP134 P0000 60001 T01390078 10156 20139 53002
PANC 160453Z 13012KT 10SM -RA FEW030 BKN055 BKN095 14/08 A2992 RMK AO2 RAE00B35 SLP132 P0000 T01440083
PANC 160353Z 15008KT 10SM -RA FEW030 BKN060 BKN095 14/09 A2991 RMK AO2 SLP130 P0000 T01440094
PANC 160253Z 13011G15KT 10SM -RA FEW025 SCT048 BKN070 15/11 A2992 RMK AO2 RAB37 SLP131 P0000 60001 T01500106 56007
PANC 160153Z 30003KT 10SM FEW025 SCT048 BKN070 15/11 A2992 RMK AO2 RAB16E30 SLP132 P0000 T01500106
PANC 160053Z 00000KT 10SM FEW025 BKN048 BKN070 15/09 A2993 RMK AO2 RAE11 SLP135 P0001 T01500094
PANC 152353Z 04005KT 10SM -RA FEW015 BKN048 BKN130 14/08 A2994 RMK AO2 RAB48 SLP139 P0000 60000 T01440078 10150 20128 58003
PANC 152253Z 35003KT 10SM FEW015 SCT025 BKN048 BKN130 14/09 A2994 RMK AO2 SLP141 T01440089
PANC 152153Z 30004KT 10SM FEW012 SCT026 BKN048 BKN130 14/09 A2995 RMK AO2 SLP142 T01390089
PANC 152134Z 32004KT 10SM FEW012 SCT026 BKN048 BKN130 14/09 A2995 RMK AO2 T01390089
PANC 152053Z 31005KT 10SM SCT012 BKN020 BKN060 OVC130 14/10 A2995 RMK AO2 SLP141 60000 T01440100 51007
PANC 151953Z 29005KT 10SM SCT012 BKN020 OVC060 13/09 A2994 RMK AO2 RAE1859B37E50 SLP140 P0000 T01280094
PANC 151929Z 29006KT 10SM SCT012 BKN020 OVC060 13/09 A2994 RMK AO2 RAE1859 P0000 T01330094
PANC 151853Z 29007KT 10SM -RA BKN012 BKN036 OVC060 13/09 A2994 RMK AO2 RAB50 SLP138 P0000 T01280094
PANC 151753Z 13003KT 10SM BKN012 BKN036 OVC060 13/11 A2992 RMK AO2 SLP134 60001 T01330111 10133 20117 52009
PANC 151734Z 00000KT 10SM BKN013 BKN036 OVC060 13/11 A2992 RMK AO2 T01280111
PANC 151653Z 00000KT 10SM FEW010 SCT028 BKN041 OVC130 12/11 A2991 RMK AO2 RAE29 SLP131 P0000 T01220111
PANC 151553Z 08004KT 10SM -RA FEW010 BKN045 BKN075 OVC140 12/11 A2991 RMK AO2 SLP128 P0000 T01220106
PANC 151453Z 00000KT 10SM -RA FEW010 BKN041 BKN075 OVC130 12/11 A2990 RMK AO2 SLP125 P0000 60001 T01170106 53007